Latest Coastal Weather Observations for Yarram Airport

IDV60701

Issued at 2:01 pm EDT Sunday 29 March 2015 (issued every 10 minutes, with the page automatically refreshed every 10 minutes)

About coastal observations | Map of coastal stations | Coastal observations for VIC | Marine services | Other Formats
Station Details ID: 085151 Name: YARRAM AIRPORT Lat: -38.56 Lon: 146.75 Height: 17.9 m
Data from the previous 72 hours. | See also: Recent months at Yarram Airport
Date/Time
EDT
Temp

°C
Wind Pressure Rain
since 9am
mm
Weather Cloud Vis
km
Sea
Height
m
Swell
Dir
 
Speed
knots
Gust
knots
hPa Trend Height
m
Period
s
Dir
29/02:00pm 21.7 WNW 13 19 1020.8 - 0.0 - - - - - - -
29/01:30pm 21.2 W 15 22 1021.1 - 0.0 - - - - - - -
29/01:00pm 21.1 W 13 20 1021.4 - 0.0 - - - - - - -
29/12:30pm 20.8 W 13 18 1021.5 - 0.0 - - - - - - -
29/12:00pm 20.1 W 11 16 1021.7 - 0.0 - - - - - - -
29/11:30am 19.2 W 6 10 1022.0 - 0.0 - - - - - - -
29/11:00am 18.0 W 6 9 1022.2 - 0.0 - - - - - - -
29/10:30am 16.7 WSW 5 8 1022.3 - 0.0 - - - - - - -
29/10:00am 15.4 WNW 5 6 1022.5 - 0.0 - - - - - - -
29/09:30am 13.7 WNW 4 5 1022.6 - 0.0 - - - - - - -
29/09:00am 11.6 CALM 0 0 1022.5 - 0.2 - - - - - - -
29/08:30am 9.1 NNE 4 4 1022.3 - 0.2 - - - - - - -
29/08:00am 6.3 NNW 4 4 1022.0 - 0.2 - - - - - - -
29/07:30am 5.3 NW 5 5 1021.9 - 0.2 - - - - - - -
29/07:00am 6.5 W 6 6 1021.6 - 0.2 - - - - - - -
29/06:30am 5.6 NW 2 3 1021.2 - 0.2 - - - - - - -
29/06:00am 5.4 NNW 4 5 1020.9 - 0.2 - - - - - - -
29/05:30am 5.3 N 3 5 1020.7 - 0.2 - - - - - - -
29/05:00am 6.3 CALM 0 0 1020.7 - 0.2 - - - - - - -
29/04:30am 5.8 N 3 4 1020.5 - 0.2 - - - - - - -
29/04:00am 6.0 N 4 4 1020.4 - 0.0 - - - - - - -
29/03:30am 5.9 N 3 4 1020.8 - 0.0 - - - - - - -
29/03:00am 6.3 N 4 5 1021.1 - 0.0 - - - - - - -
29/02:30am 6.6 N 3 4 1021.5 - 0.0 - - - - - - -
29/02:00am 7.5 NNW 3 4 1021.9 - 0.0 - - - - - - -
29/01:30am 7.0 N 4 5 1021.9 - 0.0 - - - - - - -
29/01:00am 8.1 N 4 5 1022.1 - 0.0 - - - - - - -
29/12:30am 8.0 CALM 0 0 1022.1 - 0.0 - - - - - - -
29/12:00am 8.1 NNW 3 4 1022.3 - 0.0 - - - - - - -
 
Date/Time
EDT
Temp

°C
Wind Pressure Rain
since 9am
mm
Weather Cloud Vis
km
Sea
Height
m
Swell
Dir
 
Speed
knots
Gust
knots
hPa Trend Height
m
Period
s
Dir
28/11:30pm 9.1 NNE 4 4 1022.3 - 0.0 - - - - - - -
28/11:00pm 9.6 NNE 4 5 1022.4 - 0.0 - - - - - - -
28/10:30pm 11.3 NW 3 4 1022.5 - 0.0 - - - - - - -
28/10:00pm 11.1 N 3 4 1022.6 - 0.0 - - - - - - -
28/09:30pm 13.2 NW 3 4 1022.7 - 0.0 - - - - - - -
28/09:00pm 13.9 WNW 3 4 1022.5 - 0.0 - - - - - - -
28/08:30pm 14.7 W 5 7 1022.4 - 0.0 - - - - - - -
28/08:00pm 14.8 WSW 8 11 1022.4 - 0.0 - - - - - - -
28/07:30pm 15.1 WSW 8 10 1022.3 - 0.0 - - - - - - -
28/07:00pm 15.6 WSW 7 8 1022.2 - 0.0 - - - - - - -
28/06:30pm 16.1 WSW 8 11 1022.2 - 0.0 - - - - - - -
28/06:00pm 16.4 WSW 9 11 1022.2 - 0.0 - - - - - - -
28/05:30pm 16.2 WSW 8 11 1022.1 - 0.0 - - - - - - -
28/05:00pm 16.4 W 9 12 1022.1 - 0.0 - - - - - - -
28/04:30pm 16.3 W 10 14 1022.4 - 0.0 - - - - - - -
28/04:00pm 16.4 WSW 10 12 1022.5 - 0.0 - - - - - - -
28/03:30pm 16.9 W 11 13 1022.6 - 0.0 - - - - - - -
28/03:00pm 16.9 SW 10 13 1022.8 - 0.0 - - - - - - -
28/02:30pm 17.3 W 11 14 1023.0 - 0.0 - - - - - - -
28/02:00pm 17.3 WSW 10 16 1023.2 - 0.0 - - - - - - -
28/01:30pm 17.2 WSW 9 12 1023.5 - 0.0 - - - - - - -
28/01:00pm 17.5 W 5 9 1023.7 - 0.0 - - - - - - -
28/12:30pm 16.4 WSW 8 11 1024.0 - 0.0 - - - - - - -
28/12:00pm 16.0 WSW 7 10 1024.3 - 0.0 - - - - - - -
28/11:30am 15.7 W 9 11 1024.7 - 0.0 - - - - - - -
28/11:00am 15.6 W 10 13 1024.8 - 0.0 - - - - - - -
28/10:30am 15.4 W 11 15 1024.9 - 0.0 - - - - - - -
28/10:00am 14.9 W 11 15 1024.9 - 0.0 - - - - - - -
28/09:30am 14.0 WNW 8 10 1024.7 - 0.0 - - - - - - -
28/09:00am 13.5 W 6 8 1024.5 - 4.8 - - - - - - -
28/08:30am 13.0 WNW 5 7 1024.3 - 4.8 - - - - - - -
28/08:00am 12.6 WNW 6 8 1024.0 - 4.8 - - - - - - -
28/07:30am 12.4 W 8 10 1023.7 - 4.8 - - - - - - -
28/07:00am 12.2 WNW 6 8 1023.6 - 4.8 - - - - - - -
28/06:30am 12.2 W 6 7 1023.3 - 4.8 - - - - - - -
28/06:00am 12.2 WNW 6 7 1023.2 - 4.8 - - - - - - -
28/05:30am 11.9 W 6 7 1023.1 - 4.8 - - - - - - -
28/05:00am 11.9 WNW 7 8 1022.8 - 4.8 - - - - - - -
28/04:30am 11.7 WNW 7 9 1022.8 - 4.8 - - - - - - -
28/04:00am 10.9 NW 7 7 1022.8 - 4.8 - - - - - - -
28/03:30am 10.6 NW 5 7 1022.7 - 4.8 - - - - - - -
28/03:00am 10.7 W 7 10 1022.9 - 4.8 - - - - - - -
28/02:30am 11.0 WNW 7 8 1022.9 - 4.8 - - - - - - -
28/02:00am 11.4 WNW 10 12 1022.8 - 4.8 - - - - - - -
28/01:30am 11.3 WNW 9 11 1022.9 - 4.8 - - - - - - -
28/01:00am 11.2 W 10 12 1022.8 - 4.8 - - - - - - -
28/12:30am 11.3 W 10 13 1022.9 - 4.8 - - - - - - -
28/12:00am 11.4 WNW 10 12 1023.0 - 4.8 - - - - - - -
 
Date/Time
EDT
Temp

°C
Wind Pressure Rain
since 9am
mm
Weather Cloud Vis
km
Sea
Height
m
Swell
Dir
 
Speed
knots
Gust
knots
hPa Trend Height
m
Period
s
Dir
27/11:30pm 11.6 W 9 13 1023.0 - 4.8 - - - - - - -
27/11:00pm 11.7 W 10 12 1022.8 - 4.8 - - - - - - -
27/10:30pm 12.2 W 9 12 1022.8 - 4.8 - - - - - - -
27/10:00pm 12.4 W 11 14 1022.6 - 4.8 - - - - - - -
27/09:30pm 12.8 W 13 16 1022.3 - 4.8 - - - - - - -
27/09:00pm 13.0 W 14 19 1022.1 - 4.8 - - - - - - -
27/08:30pm 12.9 W 13 17 1021.9 - 4.8 - - - - - - -
27/08:00pm 13.1 W 14 19 1021.3 - 4.8 - - - - - - -
27/07:30pm 13.6 W 16 21 1021.0 - 4.8 - - - - - - -
27/07:00pm 13.8 W 15 20 1020.9 - 4.8 - - - - - - -
27/06:30pm 14.0 W 18 25 1020.5 - 4.8 - - - - - - -
27/06:00pm 13.9 WSW 18 22 1020.0 - 4.8 Rain - - - - - -
27/05:30pm 14.2 WSW 18 24 1020.0 - 4.6 - - - - - - -
27/05:00pm 14.7 WSW 18 24 1019.6 - 4.4 - - - - - - -
27/04:30pm 14.7 W 21 29 1019.0 - 4.4 - - - - - - -
27/04:01pm 15.4 W 23 34 1018.7 - 4.4 - - - - - - -
27/04:00pm 15.6 W 23 29 1018.7 - 4.4 - - - - - - -
27/03:40pm 14.8 W 23 34 1018.8 - 4.4 - - - - - - -
27/03:30pm 14.8 W 23 31 1018.8 - 4.4 - - - - - - -
27/03:00pm 14.8 W 22 32 1018.8 - 4.4 - - - - - - -
27/02:30pm 14.3 WSW 22 29 1019.0 - 4.4 - - - - - - -
27/02:00pm 13.9 W 23 33 1019.0 - 4.4 - - - - - - -
27/01:31pm 14.7 WSW 24 34 1018.8 - 4.0 - - - - - - -
27/01:30pm 14.8 WSW 24 32 1018.9 - 4.0 - - - - - - -
27/01:00pm 14.7 WSW 24 35 1018.9 - 4.0 - - - - - - -
27/12:30pm 15.9 WSW 23 34 1018.4 - 4.0 - - - - - - -
27/12:27pm 15.6 WSW 23 34 1018.4 - 4.0 - - - - - - -
27/12:00pm 14.3 WSW 21 29 1018.5 - 4.0 Recent precip. - - - - - -
27/11:31am 13.6 W 18 30 1018.3 - 3.8 - - - - - - -
27/11:30am 13.6 W 17 24 1018.3 - 3.8 - - - - - - -
27/11:00am 13.0 W 19 27 1018.2 - 3.0 - - - - - - -
27/10:30am 14.7 W 21 31 1018.0 - 0.4 - - - - - - -
27/10:03am 13.7 WSW 20 31 1017.8 - 0.4 - - - - - - -
27/10:00am 13.6 WSW 20 29 1017.7 - 0.4 - - - - - - -
27/09:30am 13.4 WSW 23 33 1017.3 - 0.2 - - - - - - -
27/09:00am 13.3 W 22 32 1016.5 - 7.4 Recent precip. - - - - - -
27/08:46am 12.8 WSW 22 32 1016.3 - 7.4 - - - - - - -
27/08:39am 12.6 WSW 19 29 1016.4 - 7.0 - - - - - - -
27/08:32am 13.3 W 19 29 1016.0 - 5.8 - - - - - - -
27/08:30am 13.3 W 20 29 1015.9 - 5.8 - - - - - - -
27/08:00am 12.9 W 20 28 1015.4 - 5.8 - - - - - - -
27/07:50am 12.7 WNW 19 30 1015.1 - 5.8 - - - - - - -
27/07:30am 12.2 WNW 18 26 1015.0 - 5.8 - - - - - - -
27/07:17am 12.1 WNW 20 32 1015.0 - 5.8 - - - - - - -
27/07:00am 12.1 WNW 18 25 1015.1 - 5.6 - - - - - - -
27/06:30am 11.9 WNW 19 26 1015.0 - 5.6 - - - - - - -
27/06:00am 12.6 WNW 15 20 1014.6 - 4.8 - - - - - - -
27/05:30am 12.3 WNW 14 25 1014.7 - 4.8 - - - - - - -
27/05:00am 12.2 W 13 17 1014.7 - 4.8 - - - - - - -
27/04:30am 12.3 W 15 20 1014.8 - 4.8 - - - - - - -
27/04:00am 12.7 W 16 23 1014.8 - 4.8 - - - - - - -
27/03:30am 12.2 WNW 13 17 1014.6 - 4.8 - - - - - - -
27/03:00am 11.9 WNW 10 15 1014.8 - 4.6 Recent precip. - - - - - -
27/02:30am 12.2 WNW 13 18 1014.7 - 4.0 - - - - - - -
27/02:00am 12.3 WNW 13 18 1014.7 - 3.4 - - - - - - -
27/01:30am 12.3 WNW 12 17 1014.7 - 3.4 - - - - - - -
27/01:00am 12.1 WNW 12 17 1014.8 - 3.2 - - - - - - -
27/12:30am 12.0 WNW 13 17 1014.9 - 3.2 - - - - - - -
27/12:00am 12.1 WNW 14 19 1015.0 - 2.2 Recent precip. - - - - - -
 
Date/Time
EDT
Temp

°C
Wind Pressure Rain
since 9am
mm
Weather Cloud Vis
km
Sea
Height
m
Swell
Dir
 
Speed
knots
Gust
knots
hPa Trend Height
m
Period
s
Dir
26/11:30pm 11.9 WNW 12 16 1014.7 - 1.6 - - - - - - -
26/11:00pm 12.2 WNW 15 22 1014.5 - 0.6 - - - - - - -
26/10:30pm 11.8 NW 19 26 1014.2 - 0.4 - - - - - - -
26/10:00pm 12.2 NW 20 29 1014.1 - 0.0 - - - - - - -
26/09:30pm 11.9 NW 27 41 1013.6 - 0.0 - - - - - - -
26/09:00pm 12.7 NW 27 43 1013.2 - 0.0 - - - - - - -
26/08:30pm 12.8 NW 26 40 1013.5 - 0.0 - - - - - - -
26/08:24pm 13.0 NW 24 40 1013.4 - 0.0 - - - - - - -
26/08:04pm 12.9 NW 17 29 1014.1 - 0.0 - - - - - - -
26/08:00pm 12.8 NW 17 26 1014.1 - 0.0 - - - - - - -
26/07:35pm 13.4 NW 15 27 1014.3 - 0.0 - - - - - - -
26/07:30pm 12.9 NW 15 19 1014.3 - 0.0 - - - - - - -
26/07:00pm 14.4 NW 23 34 1014.4 - 0.0 - - - - - - -
26/06:31pm 16.6 WNW 16 26 1014.1 - 0.0 - - - - - - -
26/06:30pm 16.6 WNW 15 23 1014.1 - 0.0 - - - - - - -
26/06:00pm 16.9 NW 16 24 1013.6 - 0.0 - - - - - - -
26/05:30pm 17.3 NW 18 25 1013.5 - 0.0 - - - - - - -
26/05:03pm 18.0 NW 21 31 1013.4 - 0.0 - - - - - - -
26/05:00pm 17.1 NW 20 28 1013.5 - 0.0 - - - - - - -
26/04:34pm 18.2 NW 17 30 1013.9 - 0.0 - - - - - - -
26/04:30pm 18.3 NW 16 24 1013.9 - 0.0 - - - - - - -
26/04:00pm 17.0 NW 22 32 1014.2 - 0.0 - - - - - - -
26/03:32pm 18.2 WNW 19 29 1014.5 - 0.0 - - - - - - -
26/03:30pm 18.3 WNW 20 29 1014.5 - 0.0 - - - - - - -
26/03:19pm 18.0 WNW 20 32 1014.3 - 0.0 - - - - - - -
26/03:00pm 17.4 WNW 21 29 1014.7 - 0.0 - - - - - - -
26/02:30pm 17.6 WNW 20 27 1014.7 - 0.0 - - - - - - -

Other Formats:

Comma delimited format used in spreadsheet applications
http://www.bom.gov.au/fwo/IDV60701/IDV60701.95890.axf

JavaScript Object Notation format (JSON) in row-major order
http://www.bom.gov.au/fwo/IDV60701/IDV60701.95890.json